THY2124 LTFM-LTAC
Flight info
| Callsign | THY2124 |
|---|---|
| Flight time | 0h 49m |
| Altitude | 27000 |
| Route | VICEN1D/35L VICEN T380 ASMAP L333 LATGA |
| Aircraft | B738/M-VGD/A |
Departure
| Time | 2026-05-07 19:14 |
|---|---|
| Airport | İstanbul Airport (LTFM) |
Arrival
| Time | 2026-05-07 20:04 |
|---|---|
| Airport | Esenboğa International Airport (LTAC) |
| Time | Latitude | Longitude | Altitude | Speed | Heading |
|---|---|---|---|---|---|
| 2026-05-07 18:43 | 41.26640 | 28.73751 | 334 ft | 0 kts | 270° |
| 2026-05-07 19:03 | 41.26640 | 28.73759 | 334 ft | 2 kts | 270° |
| 2026-05-07 19:03 | 41.26640 | 28.73779 | 334 ft | 2 kts | 273° |
| 2026-05-07 19:03 | 41.26638 | 28.73799 | 334 ft | 2 kts | 287° |
| 2026-05-07 19:04 | 41.26632 | 28.73818 | 334 ft | 2 kts | 297° |
| 2026-05-07 19:04 | 41.26624 | 28.73835 | 334 ft | 2 kts | 307° |
| 2026-05-07 19:04 | 41.26614 | 28.73849 | 334 ft | 2 kts | 318° |
| 2026-05-07 19:04 | 41.26603 | 28.73861 | 334 ft | 2 kts | 329° |
| 2026-05-07 19:05 | 41.26589 | 28.73870 | 334 ft | 2 kts | 339° |
| 2026-05-07 19:05 | 41.26575 | 28.73876 | 334 ft | 2 kts | 350° |
| 2026-05-07 19:05 | 41.26563 | 28.73877 | 334 ft | 0 kts | 358° |
| 2026-05-07 19:05 | 41.26558 | 28.73877 | 334 ft | 0 kts | 0° |
| 2026-05-07 19:07 | 41.26561 | 28.73877 | 334 ft | 2 kts | 0° |
| 2026-05-07 19:08 | 41.26602 | 28.73877 | 334 ft | 8 kts | 0° |
| 2026-05-07 19:08 | 41.26672 | 28.73876 | 334 ft | 10 kts | 359° |
| 2026-05-07 19:08 | 41.26741 | 28.73875 | 334 ft | 9 kts | 359° |
| 2026-05-07 19:08 | 41.26804 | 28.73873 | 334 ft | 9 kts | 359° |
| 2026-05-07 19:09 | 41.26878 | 28.73872 | 334 ft | 11 kts | 359° |
| 2026-05-07 19:09 | 41.26951 | 28.73870 | 334 ft | 9 kts | 359° |
| 2026-05-07 19:09 | 41.27013 | 28.73861 | 334 ft | 8 kts | 335° |
| 2026-05-07 19:09 | 41.27040 | 28.73790 | 334 ft | 9 kts | 271° |
| 2026-05-07 19:10 | 41.27039 | 28.73684 | 334 ft | 13 kts | 269° |
| 2026-05-07 19:10 | 41.27037 | 28.73541 | 334 ft | 16 kts | 269° |
| 2026-05-07 19:10 | 41.27035 | 28.73395 | 334 ft | 15 kts | 269° |
| 2026-05-07 19:10 | 41.27034 | 28.73262 | 334 ft | 13 kts | 270° |
| 2026-05-07 19:11 | 41.27033 | 28.73143 | 334 ft | 12 kts | 269° |
| 2026-05-07 19:11 | 41.27031 | 28.73039 | 334 ft | 10 kts | 259° |
| 2026-05-07 19:11 | 41.26984 | 28.72988 | 334 ft | 8 kts | 183° |
| 2026-05-07 19:11 | 41.26926 | 28.72988 | 334 ft | 8 kts | 179° |
| 2026-05-07 19:12 | 41.26860 | 28.72989 | 334 ft | 10 kts | 179° |
| 2026-05-07 19:12 | 41.26780 | 28.72990 | 334 ft | 12 kts | 179° |
| 2026-05-07 19:12 | 41.26712 | 28.72960 | 334 ft | 9 kts | 245° |
| 2026-05-07 19:12 | 41.26706 | 28.72855 | 334 ft | 14 kts | 269° |
| 2026-05-07 19:13 | 41.26704 | 28.72701 | 334 ft | 17 kts | 269° |
| 2026-05-07 19:13 | 41.26703 | 28.72583 | 334 ft | 11 kts | 269° |
| 2026-05-07 19:13 | 41.26717 | 28.72521 | 334 ft | 5 kts | 340° |
| 2026-05-07 19:13 | 41.26797 | 28.72516 | 334 ft | 33 kts | 359° |
| 2026-05-07 19:14 | 41.27307 | 28.72502 | 334 ft | 111 kts | 359° |
| 2026-05-07 19:14 | 41.28322 | 28.72480 | 358 ft | 173 kts | 356° |
| 2026-05-07 19:14 | 41.29538 | 28.72444 | 1154 ft | 175 kts | 355° |
| 2026-05-07 19:14 | 41.30692 | 28.72441 | 2038 ft | 171 kts | 357° |
| 2026-05-07 19:15 | 41.31959 | 28.72508 | 2291 ft | 193 kts | 359° |
| 2026-05-07 19:15 | 41.33375 | 28.72599 | 2478 ft | 219 kts | 359° |
| 2026-05-07 19:15 | 41.34980 | 28.72683 | 2789 ft | 242 kts | 359° |
| 2026-05-07 19:15 | 41.36672 | 28.72769 | 3553 ft | 243 kts | 359° |
| 2026-05-07 19:16 | 41.38359 | 28.72861 | 4296 ft | 246 kts | 359° |
| 2026-05-07 19:16 | 41.40078 | 28.72948 | 5025 ft | 248 kts | 359° |
| 2026-05-07 19:16 | 41.41808 | 28.72624 | 5447 ft | 259 kts | 332° |
| 2026-05-07 19:16 | 41.43148 | 28.71069 | 5940 ft | 264 kts | 297° |
| 2026-05-07 19:17 | 41.43549 | 28.68731 | 6628 ft | 265 kts | 264° |
| 2026-05-07 19:17 | 41.42926 | 28.66443 | 7284 ft | 270 kts | 240° |
| 2026-05-07 19:17 | 41.41873 | 28.64395 | 7928 ft | 275 kts | 236° |
| 2026-05-07 19:17 | 41.40704 | 28.62387 | 8588 ft | 279 kts | 231° |
| 2026-05-07 19:18 | 41.39299 | 28.60503 | 9258 ft | 284 kts | 223° |
| 2026-05-07 19:18 | 41.37785 | 28.58817 | 9928 ft | 287 kts | 220° |
| 2026-05-07 19:18 | 41.36160 | 28.57271 | 10565 ft | 292 kts | 214° |
| 2026-05-07 19:18 | 41.34343 | 28.56033 | 11214 ft | 297 kts | 203° |
| 2026-05-07 19:19 | 41.32371 | 28.55215 | 11858 ft | 302 kts | 194° |
| 2026-05-07 19:19 | 41.30277 | 28.54920 | 12502 ft | 307 kts | 183° |
| 2026-05-07 19:19 | 41.28116 | 28.54983 | 13131 ft | 312 kts | 178° |
| 2026-05-07 19:19 | 41.25983 | 28.55469 | 13741 ft | 318 kts | 162° |
| 2026-05-07 19:20 | 41.23988 | 28.56769 | 14398 ft | 322 kts | 147° |
| 2026-05-07 19:20 | 41.22209 | 28.58609 | 14996 ft | 327 kts | 139° |
| 2026-05-07 19:20 | 41.20538 | 28.60687 | 15640 ft | 330 kts | 136° |
| 2026-05-07 19:20 | 41.18917 | 28.62822 | 16223 ft | 335 kts | 135° |
| 2026-05-07 19:21 | 41.17273 | 28.65001 | 16812 ft | 339 kts | 135° |
| 2026-05-07 19:21 | 41.15591 | 28.67203 | 17421 ft | 342 kts | 135° |
| 2026-05-07 19:21 | 41.13884 | 28.69450 | 17963 ft | 347 kts | 133° |
| 2026-05-07 19:21 | 41.12294 | 28.71851 | 18565 ft | 349 kts | 128° |
| 2026-05-07 19:22 | 41.10857 | 28.74453 | 19080 ft | 353 kts | 123° |
| 2026-05-07 19:22 | 41.09569 | 28.77207 | 19657 ft | 355 kts | 119° |
| 2026-05-07 19:22 | 41.08358 | 28.80066 | 20157 ft | 360 kts | 117° |
| 2026-05-07 19:22 | 41.07163 | 28.82976 | 20698 ft | 362 kts | 117° |
| 2026-05-07 19:23 | 41.05954 | 28.85915 | 21208 ft | 366 kts | 117° |
| 2026-05-07 19:23 | 41.04727 | 28.88860 | 21737 ft | 368 kts | 117° |
| 2026-05-07 19:23 | 41.03488 | 28.91798 | 22225 ft | 372 kts | 117° |
| 2026-05-07 19:23 | 41.02219 | 28.94787 | 22701 ft | 375 kts | 117° |
| 2026-05-07 19:24 | 41.00938 | 28.97784 | 23177 ft | 378 kts | 117° |
| 2026-05-07 19:24 | 40.99625 | 29.00849 | 23640 ft | 382 kts | 117° |
| 2026-05-07 19:24 | 40.98316 | 29.03898 | 24070 ft | 385 kts | 117° |
| 2026-05-07 19:24 | 40.96994 | 29.06971 | 24556 ft | 388 kts | 117° |
| 2026-05-07 19:25 | 40.95661 | 29.10069 | 24932 ft | 393 kts | 117° |
| 2026-05-07 19:25 | 40.94300 | 29.13223 | 25531 ft | 391 kts | 117° |
| 2026-05-07 19:25 | 40.92965 | 29.16311 | 26119 ft | 389 kts | 117° |
| 2026-05-07 19:25 | 40.91620 | 29.19414 | 26637 ft | 389 kts | 117° |
| 2026-05-07 19:26 | 40.90282 | 29.22502 | 27062 ft | 390 kts | 118° |
| 2026-05-07 19:26 | 40.88928 | 29.25630 | 27096 ft | 396 kts | 117° |
| 2026-05-07 19:26 | 40.87573 | 29.28756 | 27099 ft | 397 kts | 117° |
| 2026-05-07 19:26 | 40.86211 | 29.31889 | 27098 ft | 392 kts | 117° |
| 2026-05-07 19:27 | 40.84858 | 29.34999 | 27103 ft | 387 kts | 117° |
| 2026-05-07 19:27 | 40.83526 | 29.38065 | 27105 ft | 387 kts | 117° |
| 2026-05-07 19:27 | 40.82189 | 29.41139 | 27105 ft | 388 kts | 117° |
| 2026-05-07 19:27 | 40.80832 | 29.44260 | 27105 ft | 390 kts | 117° |
| 2026-05-07 19:28 | 40.79491 | 29.47335 | 27105 ft | 391 kts | 117° |
| 2026-05-07 19:28 | 40.78174 | 29.50494 | 27107 ft | 397 kts | 114° |
| 2026-05-07 19:28 | 40.77013 | 29.53846 | 27113 ft | 406 kts | 108° |
| 2026-05-07 19:28 | 40.76059 | 29.57394 | 27107 ft | 415 kts | 103° |
| 2026-05-07 19:29 | 40.75238 | 29.61071 | 27105 ft | 424 kts | 102° |
| 2026-05-07 19:29 | 40.74468 | 29.64857 | 27104 ft | 434 kts | 101° |
| 2026-05-07 19:29 | 40.73819 | 29.68760 | 27102 ft | 442 kts | 96° |
| 2026-05-07 19:29 | 40.73438 | 29.72808 | 27101 ft | 449 kts | 91° |
| 2026-05-07 19:30 | 40.73240 | 29.76934 | 27103 ft | 458 kts | 89° |
| 2026-05-07 19:30 | 40.73133 | 29.81172 | 27102 ft | 466 kts | 87° |
| 2026-05-07 19:30 | 40.73068 | 29.85420 | 27104 ft | 470 kts | 87° |
| 2026-05-07 19:30 | 40.73013 | 29.89740 | 27103 ft | 467 kts | 87° |
| 2026-05-07 19:31 | 40.72957 | 29.93985 | 27104 ft | 465 kts | 87° |
| 2026-05-07 19:31 | 40.72878 | 29.98217 | 27105 ft | 466 kts | 89° |
| 2026-05-07 19:31 | 40.72557 | 30.02482 | 27106 ft | 471 kts | 94° |
| 2026-05-07 19:31 | 40.71990 | 30.06728 | 27104 ft | 472 kts | 97° |
| 2026-05-07 19:32 | 40.71294 | 30.10955 | 27104 ft | 472 kts | 99° |
| 2026-05-07 19:32 | 40.70546 | 30.15160 | 27104 ft | 472 kts | 99° |
| 2026-05-07 19:32 | 40.69788 | 30.19361 | 27104 ft | 473 kts | 99° |
| 2026-05-07 19:32 | 40.69046 | 30.23520 | 27107 ft | 473 kts | 99° |
| 2026-05-07 19:33 | 40.68296 | 30.27787 | 27109 ft | 474 kts | 99° |
| 2026-05-07 19:33 | 40.67573 | 30.31981 | 27111 ft | 472 kts | 98° |
| 2026-05-07 19:33 | 40.66856 | 30.36197 | 27112 ft | 473 kts | 98° |
| 2026-05-07 19:33 | 40.66153 | 30.40376 | 27113 ft | 473 kts | 98° |
| 2026-05-07 19:34 | 40.65447 | 30.44597 | 27117 ft | 472 kts | 98° |
| 2026-05-07 19:34 | 40.64742 | 30.48814 | 27126 ft | 472 kts | 98° |
| 2026-05-07 19:34 | 40.64037 | 30.53041 | 27135 ft | 473 kts | 98° |
| 2026-05-07 19:34 | 40.63340 | 30.57222 | 27142 ft | 473 kts | 98° |
| 2026-05-07 19:35 | 40.62633 | 30.61453 | 27147 ft | 472 kts | 97° |
| 2026-05-07 19:35 | 40.61925 | 30.65690 | 27152 ft | 474 kts | 98° |
| 2026-05-07 19:35 | 40.61219 | 30.69911 | 27159 ft | 473 kts | 98° |
| 2026-05-07 19:35 | 40.60752 | 30.72692 | 27163 ft | 473 kts | 98° |
| 2026-05-07 19:36 | 40.59810 | 30.78294 | 27170 ft | 474 kts | 98° |
| 2026-05-07 19:36 | 40.59096 | 30.82523 | 27171 ft | 474 kts | 98° |
| 2026-05-07 19:36 | 40.58384 | 30.86729 | 27172 ft | 473 kts | 98° |
| 2026-05-07 19:36 | 40.57667 | 30.90954 | 27176 ft | 475 kts | 98° |
| 2026-05-07 19:37 | 40.56948 | 30.95189 | 27177 ft | 475 kts | 98° |
| 2026-05-07 19:37 | 40.56225 | 30.99424 | 27177 ft | 474 kts | 98° |
| 2026-05-07 19:37 | 40.55503 | 31.03650 | 27179 ft | 476 kts | 98° |
| 2026-05-07 19:37 | 40.54781 | 31.07866 | 27180 ft | 475 kts | 98° |
| 2026-05-07 19:38 | 40.54060 | 31.12063 | 27181 ft | 474 kts | 98° |
| 2026-05-07 19:38 | 40.53335 | 31.16274 | 27181 ft | 475 kts | 98° |
| 2026-05-07 19:38 | 40.52602 | 31.20531 | 27181 ft | 475 kts | 98° |
| 2026-05-07 19:38 | 40.51835 | 31.24721 | 27182 ft | 476 kts | 99° |
| 2026-05-07 19:39 | 40.50974 | 31.28914 | 27182 ft | 476 kts | 101° |
| 2026-05-07 19:39 | 40.50063 | 31.33068 | 27184 ft | 476 kts | 102° |
| 2026-05-07 19:39 | 40.49128 | 31.37225 | 27190 ft | 477 kts | 102° |
| 2026-05-07 19:39 | 40.48183 | 31.41417 | 27193 ft | 477 kts | 102° |
| 2026-05-07 19:40 | 40.47256 | 31.45550 | 27197 ft | 477 kts | 102° |
| 2026-05-07 19:40 | 40.46315 | 31.49770 | 27067 ft | 480 kts | 101° |
| 2026-05-07 19:40 | 40.45390 | 31.53947 | 26809 ft | 482 kts | 101° |
| 2026-05-07 19:40 | 40.44457 | 31.58170 | 26548 ft | 479 kts | 101° |
| 2026-05-07 19:41 | 40.43541 | 31.62324 | 26318 ft | 476 kts | 101° |
| 2026-05-07 19:41 | 40.42626 | 31.66479 | 26041 ft | 478 kts | 102° |
| 2026-05-07 19:41 | 40.41706 | 31.70667 | 25649 ft | 481 kts | 102° |
| 2026-05-07 19:41 | 40.40781 | 31.74868 | 25215 ft | 481 kts | 102° |
| 2026-05-07 19:42 | 40.39855 | 31.79069 | 24748 ft | 478 kts | 102° |
| 2026-05-07 19:42 | 40.38935 | 31.83222 | 24276 ft | 471 kts | 102° |
| 2026-05-07 19:42 | 40.38034 | 31.87273 | 23817 ft | 464 kts | 102° |
| 2026-05-07 19:42 | 40.37136 | 31.91300 | 23353 ft | 457 kts | 102° |
| 2026-05-07 19:43 | 40.36253 | 31.95261 | 22908 ft | 451 kts | 102° |
| 2026-05-07 19:43 | 40.35377 | 31.99180 | 22486 ft | 444 kts | 102° |
| 2026-05-07 19:43 | 40.34520 | 32.03006 | 22065 ft | 438 kts | 102° |
| 2026-05-07 19:43 | 40.33658 | 32.06828 | 21638 ft | 435 kts | 102° |
| 2026-05-07 19:44 | 40.32811 | 32.10591 | 21220 ft | 432 kts | 102° |
| 2026-05-07 19:44 | 40.31976 | 32.14355 | 20796 ft | 428 kts | 101° |
| 2026-05-07 19:44 | 40.31376 | 32.18114 | 20377 ft | 421 kts | 93° |
| 2026-05-07 19:44 | 40.31230 | 32.21871 | 19956 ft | 412 kts | 83° |
| 2026-05-07 19:45 | 40.31613 | 32.25539 | 19620 ft | 399 kts | 71° |
| 2026-05-07 19:45 | 40.32453 | 32.28957 | 19370 ft | 389 kts | 64° |
| 2026-05-07 19:45 | 40.33465 | 32.32199 | 19208 ft | 383 kts | 62° |
| 2026-05-07 19:45 | 40.34518 | 32.35350 | 19194 ft | 372 kts | 62° |
| 2026-05-07 19:46 | 40.35412 | 32.38457 | 19191 ft | 362 kts | 69° |
| 2026-05-07 19:46 | 40.35806 | 32.41677 | 19200 ft | 352 kts | 83° |
| 2026-05-07 19:46 | 40.35685 | 32.44790 | 19198 ft | 345 kts | 93° |
| 2026-05-07 19:46 | 40.35228 | 32.47915 | 19200 ft | 347 kts | 99° |
| 2026-05-07 19:47 | 40.34576 | 32.50977 | 19198 ft | 353 kts | 105° |
| 2026-05-07 19:47 | 40.33570 | 32.53906 | 19089 ft | 360 kts | 116° |
| 2026-05-07 19:47 | 40.32229 | 32.56697 | 18819 ft | 371 kts | 122° |
| 2026-05-07 19:47 | 40.30715 | 32.59460 | 18447 ft | 372 kts | 124° |
| 2026-05-07 19:48 | 40.29178 | 32.62137 | 18063 ft | 366 kts | 124° |
| 2026-05-07 19:48 | 40.27655 | 32.64777 | 17674 ft | 354 kts | 124° |
| 2026-05-07 19:48 | 40.26223 | 32.67286 | 17309 ft | 342 kts | 125° |
| 2026-05-07 19:48 | 40.24840 | 32.69740 | 16947 ft | 331 kts | 124° |
| 2026-05-07 19:49 | 40.23495 | 32.72152 | 16619 ft | 320 kts | 124° |
| 2026-05-07 19:49 | 40.22229 | 32.74436 | 16296 ft | 310 kts | 124° |
| 2026-05-07 19:49 | 40.20981 | 32.76723 | 15997 ft | 305 kts | 121° |
| 2026-05-07 19:49 | 40.20005 | 32.79130 | 15665 ft | 300 kts | 106° |
| 2026-05-07 19:50 | 40.19735 | 32.81779 | 15339 ft | 289 kts | 77° |
| 2026-05-07 19:50 | 40.20385 | 32.84172 | 15023 ft | 278 kts | 53° |
| 2026-05-07 19:50 | 40.21578 | 32.86071 | 14714 ft | 271 kts | 40° |
| 2026-05-07 19:50 | 40.23025 | 32.87663 | 14386 ft | 268 kts | 33° |
| 2026-05-07 19:51 | 40.24524 | 32.89057 | 14070 ft | 267 kts | 32° |
| 2026-05-07 19:51 | 40.26048 | 32.90441 | 13744 ft | 266 kts | 32° |
| 2026-05-07 19:51 | 40.27544 | 32.91826 | 13346 ft | 267 kts | 33° |
| 2026-05-07 19:51 | 40.29066 | 32.93264 | 12976 ft | 268 kts | 33° |
| 2026-05-07 19:52 | 40.30567 | 32.94693 | 12607 ft | 268 kts | 33° |
| 2026-05-07 19:52 | 40.32071 | 32.96129 | 12206 ft | 270 kts | 33° |
| 2026-05-07 19:52 | 40.33590 | 32.97579 | 11797 ft | 270 kts | 33° |
| 2026-05-07 19:52 | 40.35092 | 32.99014 | 11471 ft | 266 kts | 33° |
| 2026-05-07 19:53 | 40.36567 | 33.00425 | 11152 ft | 262 kts | 34° |
| 2026-05-07 19:53 | 40.38033 | 33.01828 | 10770 ft | 259 kts | 34° |
| 2026-05-07 19:53 | 40.39469 | 33.03206 | 10356 ft | 254 kts | 33° |
| 2026-05-07 19:53 | 40.40880 | 33.04564 | 9938 ft | 250 kts | 34° |
| 2026-05-07 19:54 | 40.42255 | 33.05888 | 9523 ft | 244 kts | 34° |
| 2026-05-07 19:54 | 40.43615 | 33.07191 | 9102 ft | 240 kts | 34° |
| 2026-05-07 19:54 | 40.44957 | 33.08490 | 8695 ft | 236 kts | 38° |
| 2026-05-07 19:54 | 40.46026 | 33.10112 | 8252 ft | 238 kts | 60° |
| 2026-05-07 19:55 | 40.46499 | 33.12139 | 7839 ft | 236 kts | 85° |
| 2026-05-07 19:55 | 40.46279 | 33.14224 | 7429 ft | 232 kts | 111° |
| 2026-05-07 19:55 | 40.45408 | 33.15953 | 7029 ft | 220 kts | 137° |
| 2026-05-07 19:55 | 40.44140 | 33.16926 | 6610 ft | 208 kts | 162° |
| 2026-05-07 19:56 | 40.42786 | 33.17427 | 6189 ft | 201 kts | 166° |
| 2026-05-07 19:56 | 40.41450 | 33.17882 | 5766 ft | 195 kts | 166° |
| 2026-05-07 19:56 | 40.40185 | 33.18316 | 5550 ft | 180 kts | 166° |
| 2026-05-07 19:56 | 40.38996 | 33.18707 | 5576 ft | 171 kts | 172° |
| 2026-05-07 19:57 | 40.37836 | 33.18609 | 5631 ft | 169 kts | 192° |
| 2026-05-07 19:57 | 40.36664 | 33.18343 | 5608 ft | 174 kts | 188° |
| 2026-05-07 19:57 | 40.35446 | 33.18204 | 5604 ft | 176 kts | 185° |
| 2026-05-07 19:57 | 40.34231 | 33.18095 | 5599 ft | 174 kts | 185° |
| 2026-05-07 19:58 | 40.33028 | 33.17983 | 5600 ft | 172 kts | 185° |
| 2026-05-07 19:58 | 40.31835 | 33.17867 | 5602 ft | 171 kts | 185° |
| 2026-05-07 19:58 | 40.30663 | 33.17679 | 5601 ft | 169 kts | 194° |
| 2026-05-07 19:58 | 40.29568 | 33.17173 | 5603 ft | 166 kts | 208° |
| 2026-05-07 19:59 | 40.28563 | 33.16438 | 5603 ft | 165 kts | 213° |
| 2026-05-07 19:59 | 40.27607 | 33.15622 | 5602 ft | 164 kts | 216° |
| 2026-05-07 19:59 | 40.26675 | 33.14774 | 5603 ft | 163 kts | 217° |
| 2026-05-07 19:59 | 40.25746 | 33.13910 | 5602 ft | 163 kts | 217° |
| 2026-05-07 20:00 | 40.24829 | 33.13047 | 5602 ft | 163 kts | 217° |
| 2026-05-07 20:00 | 40.23891 | 33.12156 | 5614 ft | 169 kts | 217° |
| 2026-05-07 20:00 | 40.22930 | 33.11240 | 5596 ft | 173 kts | 217° |
| 2026-05-07 20:00 | 40.21951 | 33.10306 | 5432 ft | 175 kts | 217° |
| 2026-05-07 20:01 | 40.20963 | 33.09367 | 5168 ft | 174 kts | 217° |
| 2026-05-07 20:01 | 40.20000 | 33.08450 | 4934 ft | 169 kts | 217° |
| 2026-05-07 20:01 | 40.19043 | 33.07538 | 4713 ft | 169 kts | 217° |
| 2026-05-07 20:01 | 40.18098 | 33.06639 | 4481 ft | 168 kts | 216° |
| 2026-05-07 20:02 | 40.17159 | 33.05744 | 4258 ft | 168 kts | 216° |
| 2026-05-07 20:02 | 40.16210 | 33.04842 | 4033 ft | 167 kts | 216° |
| 2026-05-07 20:02 | 40.15278 | 33.03957 | 3815 ft | 167 kts | 216° |
| 2026-05-07 20:02 | 40.14333 | 33.03059 | 3591 ft | 167 kts | 216° |
| 2026-05-07 20:03 | 40.13399 | 33.02175 | 3396 ft | 166 kts | 216° |
| 2026-05-07 20:03 | 40.12456 | 33.01285 | 3181 ft | 166 kts | 216° |
| 2026-05-07 20:03 | 40.11653 | 33.00517 | 3162 ft | 110 kts | 216° |
| 2026-05-07 20:03 | 40.11195 | 33.00079 | 3147 ft | 56 kts | 215° |
| 2026-05-07 20:04 | 40.11008 | 32.99874 | 3140 ft | 18 kts | 237° |
| 2026-05-07 20:04 | 40.10956 | 32.99725 | 3139 ft | 17 kts | 248° |
| 2026-05-07 20:04 | 40.10931 | 32.99644 | 3139 ft | 0 kts | 248° |
| 2026-05-07 20:04 | 40.10929 | 32.99636 | 3138 ft | 2 kts | 248° |
| 2026-05-07 20:05 | 40.10921 | 32.99608 | 3138 ft | 3 kts | 255° |
| 2026-05-07 20:05 | 40.10931 | 32.99554 | 3137 ft | 9 kts | 309° |
| 2026-05-07 20:05 | 40.10983 | 32.99567 | 3137 ft | 8 kts | 41° |
| 2026-05-07 20:05 | 40.11022 | 32.99607 | 3138 ft | 5 kts | 36° |
| 2026-05-07 20:06 | 40.11047 | 32.99631 | 3139 ft | 3 kts | 36° |
| 2026-05-07 20:06 | 40.11069 | 32.99652 | 3139 ft | 4 kts | 36° |
| 2026-05-07 20:06 | 40.11093 | 32.99676 | 3139 ft | 5 kts | 36° |
| 2026-05-07 20:06 | 40.11136 | 32.99715 | 3139 ft | 9 kts | 35° |
| 2026-05-07 20:07 | 40.11205 | 32.99781 | 3138 ft | 14 kts | 36° |
| 2026-05-07 20:07 | 40.11288 | 32.99861 | 3139 ft | 14 kts | 36° |
| 2026-05-07 20:07 | 40.11363 | 32.99931 | 3141 ft | 11 kts | 36° |
| 2026-05-07 20:07 | 40.11421 | 32.99986 | 3143 ft | 8 kts | 36° |
| 2026-05-07 20:08 | 40.11456 | 33.00020 | 3145 ft | 3 kts | 36° |
| 2026-05-07 20:08 | 40.11480 | 33.00043 | 3147 ft | 7 kts | 37° |
| 2026-05-07 20:08 | 40.11542 | 33.00103 | 3151 ft | 10 kts | 36° |
| 2026-05-07 20:08 | 40.11622 | 33.00096 | 3153 ft | 15 kts | 311° |
| 2026-05-07 20:09 | 40.11698 | 32.99958 | 3148 ft | 12 kts | 306° |
| 2026-05-07 20:09 | 40.11749 | 32.99865 | 3147 ft | 12 kts | 304° |
| 2026-05-07 20:09 | 40.11795 | 32.99774 | 3146 ft | 10 kts | 291° |
| 2026-05-07 20:10 | 40.11787 | 32.99568 | 3142 ft | 11 kts | 269° |
| 2026-05-07 20:10 | 40.11780 | 32.99466 | 3140 ft | 11 kts | 262° |
| 2026-05-07 20:10 | 40.11765 | 32.99369 | 3139 ft | 9 kts | 255° |
| 2026-05-07 20:10 | 40.11745 | 32.99280 | 3137 ft | 9 kts | 251° |
| 2026-05-07 20:11 | 40.11728 | 32.99225 | 3136 ft | 4 kts | 237° |
| 2026-05-07 20:11 | 40.11694 | 32.99213 | 3135 ft | 6 kts | 168° |
| 2026-05-07 20:11 | 40.11667 | 32.99226 | 3136 ft | 2 kts | 157° |
| 2026-05-07 20:11 | 40.11659 | 32.99230 | 3136 ft | 0 kts | 156° |